SPHI/CIX METAR and TAF weather

Enter ICAO airport designator
Station Type Date Time Source
SPHI METAR 2020/02/28 07:00 UTC NOAA

SPHI 280700Z 19008KT 9999 FEW020 24/19 Q1012 RMK PP000


Station Type Date Time Source
SPHI Decoded METAR 2020/02/28 07:00 UTC NOAA

Chiclayo, Peru (SPHI) 06-47S 079-50W 34M
Feb 28, 2020 - 02:00 AM EST / 2020.02.28 0700 UTC
Wind: from the S (190 degrees) at 9 MPH (8 KT):0
Visibility: greater than 7 mile(s):0
Sky conditions: mostly clear
Temperature: 75 F (24 C)
Dew Point: 66 F (19 C)
Relative Humidity: 73%
Pressure (altimeter): 29.88 in. Hg (1012 hPa)
ob: SPHI 280700Z 19008KT 9999 FEW020 24/19 Q1012 RMK PP000
cycle: 7

Station Type Date Time Source
SPHI TAF 2020/02/28 06:33 UTC NOAA

TAF SPHI 280500Z 2806/2906 18008KT 9999 SCT015 SCT100 TX31/2819Z TN22/2811Z
TEMPO 2809/2813 BKN010
FM281500 18011KT CAVOK
FM290200 18007KT CAVOK

Example: see airport list